Aqua Jewel — SZLD — position and weather

sailwx.info

Track history (hours):
 
Tides and Currents Weather Stations Pressure Air Temp Water Temp Dewpoint Dewpoint Depression Visibility Wind Speed Wind Dir Waves Ship Positions

Aqua Jewel

Last reported at 2018-Jan-20 15:01 UTC. Time now 2018-Jan-20 15:26 UTC.
Position N 36°23' E 025°22'.

Length 108 m; draft 3.6 m.

Type: Passenger vessel. MMSI: 239981000.

Date/timePositionNaut miles runAvg speedWind from/ knotsBaromVisibWave heightAir tempDewpointWater temp
2018-Jan-20 15:01N 36°23' E 025°22'3 5.9
2018-Jan-20 14:30N 36°23' E 025°26'510.9
2018-Jan-20 14:00N 36°27' E 025°21'611.8
2018-Jan-20 13:30N 36°33' E 025°21'714.2
2018-Jan-20 13:00N 36°40' E 025°18'4 7.3
2018-Jan-20 12:30N 36°43' E 025°16'612.5
2018-Jan-20 12:00N 36°40' E 025°09'4 8.7
2018-Jan-20 11:30N 36°37' E 025°05'612.4
2018-Jan-20 11:00N 36°37' E 024°57'510.8
2018-Jan-20 10:30N 36°41' E 025°01'714.5
2018-Jan-20 10:00N 36°47' E 025°06'714.2
2018-Jan-20 09:31N 36°53' E 025°11'714.4
2018-Jan-20 09:01N 36°59' E 025°15'714.4
2018-Jan-20 08:30N 37°06' E 025°20'2 3.9
2018-Jan-20 08:00N 37°07' E 025°21'713.6
2018-Jan-20 07:30N 37°10' E 025°13'510.4
2018-Jan-20 07:00N 37°05' E 025°09'2 4.8
2018-Jan-20 06:30N 37°07' E 025°07'714.9
2018-Jan-20 06:01N 37°14' E 025°04'714.8
2018-Jan-20 05:31N 37°21' E 025°00'612.6
2018-Jan-20 05:00N 37°26' E 024°56'0 0.0
2018-Jan-20 04:24N 37°26' E 024°56'0 0.0
2018-Jan-20 04:00N 37°26' E 024°56'0 0.0
2018-Jan-20 03:30N 37°26' E 024°56'0 0.0
2018-Jan-20 03:00N 37°26' E 024°56'0 0.0
2018-Jan-20 02:30N 37°26' E 024°56'0 0.0
2018-Jan-20 01:59N 37°26' E 024°56'0 0.0
2018-Jan-20 01:30N 37°26' E 024°56'0 0.0
2018-Jan-20 01:00N 37°26' E 024°56'0 0.0
2018-Jan-20 00:30N 37°26' E 024°56'0 0.0
2018-Jan-19 23:59N 37°26' E 024°56'0 0.0
2018-Jan-19 23:30N 37°26' E 024°56'0 0.0
2018-Jan-19 22:59N 37°26' E 024°56'0 0.0
2018-Jan-19 22:13N 37°26' E 024°56'0 0.0
2018-Jan-19 22:00N 37°26' E 024°56'4 7.5
2018-Jan-19 21:30N 37°30' E 024°57'714.5
2018-Jan-19 21:00N 37°36' E 024°52'714.8
2018-Jan-19 20:30N 37°43' E 024°48'815.0
2018-Jan-19 20:00N 37°50' E 024°44'1 2.2
2018-Jan-19 19:25N 37°51' E 024°43'614.1
2018-Jan-19 19:00N 37°46' E 024°46'1014.9
2018-Jan-19 18:21N 37°40' E 024°56'515.1
2018-Jan-19 18:00N 37°36' E 025°01'714.3
2018-Jan-19 17:29N 37°32' E 025°09'3 6.0
2018-Jan-19 17:00N 37°29' E 025°08'815.1
2018-Jan-19 16:31N 37°22' E 025°08'815.2
2018-Jan-19 16:00N 37°14' E 025°07'815.1
2018-Jan-19 15:31N 37°07' E 025°07'1 1.3
2018-Jan-19 15:00N 37°06' E 025°07'714.7
2018-Jan-19 14:30N 37°13' E 025°08'714.7
2018-Jan-19 14:00N 37°21' E 025°08'714.8
2018-Jan-19 13:31N 37°28' E 025°09'4 8.1
2018-Jan-19 13:00N 37°32' E 025°09'3 6.0
2018-Jan-19 12:31N 37°33' E 025°05'815.2
2018-Jan-19 12:00N 37°39' E 024°58'815.1
2018-Jan-19 11:29N 37°44' E 024°51'715.3
2018-Jan-19 11:00N 37°50' E 024°45'2 3.1
2018-Jan-19 10:24N 37°51' E 024°43'614.6
2018-Jan-19 10:00N 37°46' E 024°46'714.9
2018-Jan-19 09:30N 37°39' E 024°51'715.0
2018-Jan-19 09:00N 37°33' E 024°55'612.1
2018-Jan-19 08:29N 37°26' E 024°57'2 3.8
2018-Jan-19 08:00N 37°28' E 024°57'612.6
2018-Jan-19 07:30N 37°32' E 024°51'714.8
2018-Jan-19 07:00N 37°32' E 024°42'815.1
2018-Jan-19 06:30N 37°31' E 024°33'714.9
2018-Jan-19 06:00N 37°31' E 024°23'714.2
2018-Jan-19 05:30N 37°31' E 024°14'815.5
2018-Jan-19 05:01N 37°37' E 024°07'  
2018-Jan-12 14:50N 37°40' E 024°56'515.7
2018-Jan-12 14:30N 37°37' E 025°01'815.1
2018-Jan-12 14:00N 37°32' E 025°09'1 1.3
2018-Jan-12 13:30N 37°32' E 025°09'815.2
2018-Jan-12 13:00N 37°24' E 025°08'815.4
2018-Jan-12 12:31N 37°16' E 025°08'815.1
2018-Jan-12 12:00N 37°09' E 025°08'4 7.1
2018-Jan-12 11:30N 37°05' E 025°09'611.6
2018-Jan-12 11:00N 37°11' E 025°08'714.9
2018-Jan-12 10:30N 37°18' E 025°08'714.7
2018-Jan-12 10:00N 37°26' E 025°09'713.4
2018-Jan-12 09:30N 37°32' E 025°09'511.0
2018-Jan-12 09:00N 37°34' E 025°03'1214.7
2018-Jan-12 08:10N 37°43' E 024°52'314.9
2018-Jan-12 08:00N 37°45' E 024°50'714.9
2018-Jan-12 07:30N 37°50' E 024°44'0 0.8
2018-Jan-12 06:59N 37°50' E 024°43'715.0
2018-Jan-12 06:30N 37°44' E 024°47'714.8
2018-Jan-12 06:00N 37°37' E 024°51'714.7
2018-Jan-12 05:30N 37°31' E 024°56'5 9.7
2018-Jan-12 05:00N 37°26' E 024°56'0 0.0
2018-Jan-12 04:30N 37°26' E 024°56'0 0.0
2018-Jan-12 04:00N 37°26' E 024°56'0 0.0
2018-Jan-12 03:30N 37°26' E 024°56'0 0.0
2018-Jan-12 03:00N 37°26' E 024°56'0 0.0
2018-Jan-12 02:30N 37°26' E 024°56'0 0.0
2018-Jan-12 02:00N 37°26' E 024°56'0 0.0
2018-Jan-12 01:30N 37°26' E 024°56'0 0.0
2018-Jan-12 01:00N 37°26' E 024°56'0 0.0
2018-Jan-12 00:30N 37°26' E 024°56'0 0.0
2018-Jan-12 00:00N 37°26' E 024°56'0 0.1
2018-Jan-11 23:30N 37°26' E 024°57'611.3
2018-Jan-11 23:00N 37°32' E 024°56'715.1
2018-Jan-11 22:30N 37°38' E 024°51'815.2
2018-Jan-11 22:01N 37°45' E 024°46'8 9.9
2018-Jan-11 21:12N 37°53' E 024°44'314.6
2018-Jan-11 21:00N 37°50' E 024°43'815.2
2018-Jan-11 20:30N 37°45' E 024°50'815.7
2018-Jan-11 20:00N 37°39' E 024°58'816.0
2018-Jan-11 19:30N 37°34' E 025°05'4 7.8
2018-Jan-11 19:00N 37°31' E 025°09'815.2
2018-Jan-11 18:31N 37°24' E 025°08'815.2
2018-Jan-11 18:01N 37°16' E 025°08'714.9
2018-Jan-11 17:30N 37°09' E 025°08'3 6.9
2018-Jan-11 17:00N 37°05' E 025°08'714.6
2018-Jan-11 16:30N 37°12' E 025°08'815.2
2018-Jan-11 16:00N 37°20' E 025°08'714.9
2018-Jan-11 15:30N 37°27' E 025°09'5 9.6
2018-Jan-11 15:00N 37°32' E 025°09'713.7
2018-Jan-11 14:30N 37°36' E 025°02'1014.3
2018-Jan-11 13:49N 37°43' E 024°53'514.7
2018-Jan-11 13:30N 37°46' E 024°48'6 6.7
2018-Jan-11 12:36N 37°51' E 024°43'315.0
2018-Jan-11 12:25N 37°48' E 024°45'615.3
2018-Jan-11 12:00N 37°42' E 024°48'714.7
2018-Jan-11 11:31N 37°36' E 024°53'815.1
2018-Jan-11 11:01N 37°29' E 024°57'3 6.6
2018-Jan-11 10:30N 37°26' E 024°57'712.0
2018-Jan-11 09:57N 37°32' E 024°52'715.0
2018-Jan-11 09:30N 37°31' E 024°44'714.9
2018-Jan-11 09:00N 37°30' E 024°35'814.9
2018-Jan-11 08:30N 37°29' E 024°25'611.7
2018-Jan-11 08:00N 37°24' E 024°23'3 5.7
2018-Jan-11 07:30N 37°26' E 024°20'715.0
2018-Jan-11 07:00N 37°32' E 024°15'8 6.9
2018-Jan-11 05:52N 37°40' E 024°13'514.3
2018-Jan-11 05:30N 37°38' E 024°07'5 1.8
2018-Jan-11 02:38N 37°43' E 024°04'0 0.0
2018-Jan-11 02:25N 37°43' E 024°04'3 0.5
2018-Jan-10 21:32N 37°40' E 024°05'015.1
2018-Jan-10 21:30N 37°40' E 024°05'612.7
2018-Jan-10 21:00N 37°39' E 024°13'3 3.5
2018-Jan-10 20:10N 37°37' E 024°16'414.2
2018-Jan-10 19:54N 37°33' E 024°15'614.7
2018-Jan-10 19:30N 37°28' E 024°19'6 8.6
2018-Jan-10 18:52N 37°24' E 024°23'410.9
2018-Jan-10 18:30N 37°28' E 024°23'714.6
2018-Jan-10 18:00N 37°30' E 024°32'815.1
2018-Jan-10 17:30N 37°31' E 024°41'815.2
2018-Jan-10 17:01N 37°31' E 024°51'613.0
2018-Jan-10 16:31N 37°28' E 024°57'3 5.7
2018-Jan-10 16:00N 37°25' E 024°58'815.1
2018-Jan-10 15:30N 37°18' E 025°01'  
Track history (hours):
 
Tides and Currents Weather Stations Pressure Air Temp Water Temp Dewpoint Dewpoint Depression Visibility Wind Speed Wind Dir Waves Ship Positions

Aqua Jewel

Last reported at 2018-Jan-20 15:01 UTC. Time now 2018-Jan-20 15:26 UTC.
Position N 36°23' E 025°22'.

Length 108 m; draft 3.6 m.

Type: Passenger vessel. MMSI: 239981000.

Date/timePositionNaut miles runAvg speedWind from/ knotsBaromVisibWave heightAir tempDewpointWater temp
2018-Jan-20 15:01N 36°23' E 025°22'3 5.9
2018-Jan-20 14:30N 36°23' E 025°26'510.9
2018-Jan-20 14:00N 36°27' E 025°21'611.8
2018-Jan-20 13:30N 36°33' E 025°21'714.2
2018-Jan-20 13:00N 36°40' E 025°18'4 7.3
2018-Jan-20 12:30N 36°43' E 025°16'612.5
2018-Jan-20 12:00N 36°40' E 025°09'4 8.7
2018-Jan-20 11:30N 36°37' E 025°05'612.4
2018-Jan-20 11:00N 36°37' E 024°57'510.8
2018-Jan-20 10:30N 36°41' E 025°01'714.5
2018-Jan-20 10:00N 36°47' E 025°06'714.2
2018-Jan-20 09:31N 36°53' E 025°11'714.4
2018-Jan-20 09:01N 36°59' E 025°15'714.4
2018-Jan-20 08:30N 37°06' E 025°20'2 3.9
2018-Jan-20 08:00N 37°07' E 025°21'713.6
2018-Jan-20 07:30N 37°10' E 025°13'510.4
2018-Jan-20 07:00N 37°05' E 025°09'2 4.8
2018-Jan-20 06:30N 37°07' E 025°07'714.9
2018-Jan-20 06:01N 37°14' E 025°04'714.8
2018-Jan-20 05:31N 37°21' E 025°00'612.6
2018-Jan-20 05:00N 37°26' E 024°56'0 0.0
2018-Jan-20 04:24N 37°26' E 024°56'0 0.0
2018-Jan-20 04:00N 37°26' E 024°56'0 0.0
2018-Jan-20 03:30N 37°26' E 024°56'0 0.0
2018-Jan-20 03:00N 37°26' E 024°56'0 0.0
2018-Jan-20 02:30N 37°26' E 024°56'0 0.0
2018-Jan-20 01:59N 37°26' E 024°56'0 0.0
2018-Jan-20 01:30N 37°26' E 024°56'0 0.0
2018-Jan-20 01:00N 37°26' E 024°56'0 0.0
2018-Jan-20 00:30N 37°26' E 024°56'0 0.0
2018-Jan-19 23:59N 37°26' E 024°56'0 0.0
2018-Jan-19 23:30N 37°26' E 024°56'0 0.0
2018-Jan-19 22:59N 37°26' E 024°56'0 0.0
2018-Jan-19 22:13N 37°26' E 024°56'0 0.0
2018-Jan-19 22:00N 37°26' E 024°56'4 7.5
2018-Jan-19 21:30N 37°30' E 024°57'714.5
2018-Jan-19 21:00N 37°36' E 024°52'714.8
2018-Jan-19 20:30N 37°43' E 024°48'815.0
2018-Jan-19 20:00N 37°50' E 024°44'1 2.2
2018-Jan-19 19:25N 37°51' E 024°43'614.1
2018-Jan-19 19:00N 37°46' E 024°46'1014.9
2018-Jan-19 18:21N 37°40' E 024°56'515.1
2018-Jan-19 18:00N 37°36' E 025°01'714.3
2018-Jan-19 17:29N 37°32' E 025°09'3 6.0
2018-Jan-19 17:00N 37°29' E 025°08'815.1
2018-Jan-19 16:31N 37°22' E 025°08'815.2
2018-Jan-19 16:00N 37°14' E 025°07'815.1
2018-Jan-19 15:31N 37°07' E 025°07'1 1.3
2018-Jan-19 15:00N 37°06' E 025°07'714.7
2018-Jan-19 14:30N 37°13' E 025°08'714.7
2018-Jan-19 14:00N 37°21' E 025°08'714.8
2018-Jan-19 13:31N 37°28' E 025°09'4 8.1
2018-Jan-19 13:00N 37°32' E 025°09'3 6.0
2018-Jan-19 12:31N 37°33' E 025°05'815.2
2018-Jan-19 12:00N 37°39' E 024°58'815.1
2018-Jan-19 11:29N 37°44' E 024°51'715.3
2018-Jan-19 11:00N 37°50' E 024°45'2 3.1
2018-Jan-19 10:24N 37°51' E 024°43'614.6
2018-Jan-19 10:00N 37°46' E 024°46'714.9
2018-Jan-19 09:30N 37°39' E 024°51'715.0
2018-Jan-19 09:00N 37°33' E 024°55'612.1
2018-Jan-19 08:29N 37°26' E 024°57'2 3.8
2018-Jan-19 08:00N 37°28' E 024°57'612.6
2018-Jan-19 07:30N 37°32' E 024°51'714.8
2018-Jan-19 07:00N 37°32' E 024°42'815.1
2018-Jan-19 06:30N 37°31' E 024°33'714.9
2018-Jan-19 06:00N 37°31' E 024°23'714.2
2018-Jan-19 05:30N 37°31' E 024°14'815.5
2018-Jan-19 05:01N 37°37' E 024°07'  
2018-Jan-12 14:50N 37°40' E 024°56'515.7
2018-Jan-12 14:30N 37°37' E 025°01'815.1
2018-Jan-12 14:00N 37°32' E 025°09'1 1.3
2018-Jan-12 13:30N 37°32' E 025°09'815.2
2018-Jan-12 13:00N 37°24' E 025°08'815.4
2018-Jan-12 12:31N 37°16' E 025°08'815.1
2018-Jan-12 12:00N 37°09' E 025°08'4 7.1
2018-Jan-12 11:30N 37°05' E 025°09'611.6
2018-Jan-12 11:00N 37°11' E 025°08'714.9
2018-Jan-12 10:30N 37°18' E 025°08'714.7
2018-Jan-12 10:00N 37°26' E 025°09'713.4
2018-Jan-12 09:30N 37°32' E 025°09'511.0
2018-Jan-12 09:00N 37°34' E 025°03'1214.7
2018-Jan-12 08:10N 37°43' E 024°52'314.9
2018-Jan-12 08:00N 37°45' E 024°50'714.9
2018-Jan-12 07:30N 37°50' E 024°44'0 0.8
2018-Jan-12 06:59N 37°50' E 024°43'715.0
2018-Jan-12 06:30N 37°44' E 024°47'714.8
2018-Jan-12 06:00N 37°37' E 024°51'714.7
2018-Jan-12 05:30N 37°31' E 024°56'5 9.7
2018-Jan-12 05:00N 37°26' E 024°56'0 0.0
2018-Jan-12 04:30N 37°26' E 024°56'0 0.0
2018-Jan-12 04:00N 37°26' E 024°56'0 0.0
2018-Jan-12 03:30N 37°26' E 024°56'0 0.0
2018-Jan-12 03:00N 37°26' E 024°56'0 0.0
2018-Jan-12 02:30N 37°26' E 024°56'0 0.0
2018-Jan-12 02:00N 37°26' E 024°56'0 0.0
2018-Jan-12 01:30N 37°26' E 024°56'0 0.0
2018-Jan-12 01:00N 37°26' E 024°56'0 0.0
2018-Jan-12 00:30N 37°26' E 024°56'0 0.0
2018-Jan-12 00:00N 37°26' E 024°56'0 0.1
2018-Jan-11 23:30N 37°26' E 024°57'611.3
2018-Jan-11 23:00N 37°32' E 024°56'715.1
2018-Jan-11 22:30N 37°38' E 024°51'815.2
2018-Jan-11 22:01N 37°45' E 024°46'8 9.9
2018-Jan-11 21:12N 37°53' E 024°44'314.6
2018-Jan-11 21:00N 37°50' E 024°43'815.2
2018-Jan-11 20:30N 37°45' E 024°50'815.7
2018-Jan-11 20:00N 37°39' E 024°58'816.0
2018-Jan-11 19:30N 37°34' E 025°05'4 7.8
2018-Jan-11 19:00N 37°31' E 025°09'815.2
2018-Jan-11 18:31N 37°24' E 025°08'815.2
2018-Jan-11 18:01N 37°16' E 025°08'714.9
2018-Jan-11 17:30N 37°09' E 025°08'3 6.9
2018-Jan-11 17:00N 37°05' E 025°08'714.6
2018-Jan-11 16:30N 37°12' E 025°08'815.2
2018-Jan-11 16:00N 37°20' E 025°08'714.9
2018-Jan-11 15:30N 37°27' E 025°09'5 9.6
2018-Jan-11 15:00N 37°32' E 025°09'713.7
2018-Jan-11 14:30N 37°36' E 025°02'1014.3
2018-Jan-11 13:49N 37°43' E 024°53'514.7
2018-Jan-11 13:30N 37°46' E 024°48'6 6.7
2018-Jan-11 12:36N 37°51' E 024°43'315.0
2018-Jan-11 12:25N 37°48' E 024°45'615.3
2018-Jan-11 12:00N 37°42' E 024°48'714.7
2018-Jan-11 11:31N 37°36' E 024°53'815.1
2018-Jan-11 11:01N 37°29' E 024°57'3 6.6
2018-Jan-11 10:30N 37°26' E 024°57'712.0
2018-Jan-11 09:57N 37°32' E 024°52'715.0
2018-Jan-11 09:30N 37°31' E 024°44'714.9
2018-Jan-11 09:00N 37°30' E 024°35'814.9
2018-Jan-11 08:30N 37°29' E 024°25'611.7
2018-Jan-11 08:00N 37°24' E 024°23'3 5.7
2018-Jan-11 07:30N 37°26' E 024°20'715.0
2018-Jan-11 07:00N 37°32' E 024°15'8 6.9
2018-Jan-11 05:52N 37°40' E 024°13'514.3
2018-Jan-11 05:30N 37°38' E 024°07'5 1.8
2018-Jan-11 02:38N 37°43' E 024°04'0 0.0
2018-Jan-11 02:25N 37°43' E 024°04'3 0.5
2018-Jan-10 21:32N 37°40' E 024°05'015.1
2018-Jan-10 21:30N 37°40' E 024°05'612.7
2018-Jan-10 21:00N 37°39' E 024°13'3 3.5
2018-Jan-10 20:10N 37°37' E 024°16'414.2
2018-Jan-10 19:54N 37°33' E 024°15'614.7
2018-Jan-10 19:30N 37°28' E 024°19'6 8.6
2018-Jan-10 18:52N 37°24' E 024°23'410.9
2018-Jan-10 18:30N 37°28' E 024°23'714.6
2018-Jan-10 18:00N 37°30' E 024°32'815.1
2018-Jan-10 17:30N 37°31' E 024°41'815.2
2018-Jan-10 17:01N 37°31' E 024°51'613.0
2018-Jan-10 16:31N 37°28' E 024°57'3 5.7
2018-Jan-10 16:00N 37°25' E 024°58'815.1
2018-Jan-10 15:30N 37°18' E 025°01'  

Dump ship's entire track history